sensor_id;sensor_type;location;lat;lon;timestamp;pressure;altitude;pressure_sealevel;temperature;humidity
70954;BME280;58618;47.490;8.736;2022-09-12T00:01:14;96668.59;;;9.95;100.00
70954;BME280;58618;47.490;8.736;2022-09-12T00:04:01;96662.91;;;9.98;100.00
70954;BME280;58618;47.490;8.736;2022-09-12T00:06:49;96654.16;;;9.99;100.00
70954;BME280;58618;47.490;8.736;2022-09-12T00:09:36;96664.47;;;9.99;100.00
70954;BME280;58618;47.490;8.736;2022-09-12T00:12:24;96653.91;;;9.95;100.00
70954;BME280;58618;47.490;8.736;2022-09-12T00:15:13;96656.22;;;9.97;100.00
70954;BME280;58618;47.490;8.736;2022-09-12T00:18:00;96657.78;;;9.93;100.00
70954;BME280;58618;47.490;8.736;2022-09-12T00:20:47;96653.19;;;9.80;100.00
70954;BME280;58618;47.490;8.736;2022-09-12T00:23:35;96651.13;;;9.82;100.00
70954;BME280;58618;47.490;8.736;2022-09-12T00:26:22;96655.50;;;9.81;100.00
70954;BME280;58618;47.490;8.736;2022-09-12T00:29:10;96652.16;;;9.81;100.00
70954;BME280;58618;47.490;8.736;2022-09-12T00:32:03;96655.25;;;9.78;100.00
70954;BME280;58618;47.490;8.736;2022-09-12T00:34:50;96657.09;;;9.67;100.00
70954;BME280;58618;47.490;8.736;2022-09-12T00:37:37;96650.13;;;9.62;100.00
70954;BME280;58618;47.490;8.736;2022-09-12T00:40:25;96651.69;;;9.63;100.00
70954;BME280;58618;47.490;8.736;2022-09-12T00:43:31;96646.00;;;9.77;100.00
70954;BME280;58618;47.490;8.736;2022-09-12T00:46:28;96650.66;;;9.59;100.00
70954;BME280;58618;47.490;8.736;2022-09-12T00:49:23;96641.41;;;9.53;100.00
70954;BME280;58618;47.490;8.736;2022-09-12T00:52:16;96632.38;;;9.61;100.00
70954;BME280;58618;47.490;8.736;2022-09-12T00:55:09;96638.56;;;9.65;100.00
70954;BME280;58618;47.490;8.736;2022-09-12T00:58:01;96634.69;;;9.62;100.00
70954;BME280;58618;47.490;8.736;2022-09-12T01:00:50;96638.03;;;9.63;100.00
70954;BME280;58618;47.490;8.736;2022-09-12T01:03:39;96639.84;;;9.62;100.00
70954;BME280;58618;47.490;8.736;2022-09-12T01:06:32;96634.69;;;9.62;100.00
70954;BME280;58618;47.490;8.736;2022-09-12T01:09:22;96631.13;;;9.43;100.00
70954;BME280;58618;47.490;8.736;2022-09-12T01:12:11;96626.81;;;9.23;100.00
70954;BME280;58618;47.490;8.736;2022-09-12T01:14:59;96629.09;;;9.40;100.00
70954;BME280;58618;47.490;8.736;2022-09-12T01:17:59;96632.13;;;9.52;100.00
70954;BME280;58618;47.490;8.736;2022-09-12T01:20:56;96623.41;;;9.48;100.00
70954;BME280;58618;47.490;8.736;2022-09-12T01:27:30;96625.50;;;9.46;100.00
70954;BME280;58618;47.490;8.736;2022-09-12T01:30:31;96622.91;;;9.41;100.00
70954;BME280;58618;47.490;8.736;2022-09-12T01:33:45;96619.31;;;9.37;100.00
70954;BME280;58618;47.490;8.736;2022-09-12T01:36:43;96617.78;;;9.31;100.00
70954;BME280;58618;47.490;8.736;2022-09-12T01:39:40;96613.41;;;9.31;100.00
70954;BME280;58618;47.490;8.736;2022-09-12T01:42:33;96609.56;;;9.24;100.00
70954;BME280;58618;47.490;8.736;2022-09-12T01:45:28;96606.72;;;9.30;100.00
70954;BME280;58618;47.490;8.736;2022-09-12T01:48:20;96604.41;;;9.29;100.00
70954;BME280;58618;47.490;8.736;2022-09-12T01:51:15;96604.66;;;9.27;100.00
70954;BME280;58618;47.490;8.736;2022-09-12T01:54:08;96605.44;;;9.28;100.00
70954;BME280;58618;47.490;8.736;2022-09-12T01:57:01;96609.28;;;9.25;100.00
70954;BME280;58618;47.490;8.736;2022-09-12T01:59:53;96596.75;;;9.04;100.00
70954;BME280;58618;47.490;8.736;2022-09-12T02:02:45;96599.81;;;8.96;100.00
70954;BME280;58618;47.490;8.736;2022-09-12T02:05:37;96595.19;;;8.98;100.00
70954;BME280;58618;47.490;8.736;2022-09-12T02:08:28;96595.94;;;9.13;100.00
70954;BME280;58618;47.490;8.736;2022-09-12T02:11:18;96599.28;;;9.19;100.00
70954;BME280;58618;47.490;8.736;2022-09-12T02:14:08;96593.13;;;9.05;100.00
70954;BME280;58618;47.490;8.736;2022-09-12T02:16:59;96595.19;;;8.98;100.00
70954;BME280;58618;47.490;8.736;2022-09-12T02:19:54;96596.22;;;8.97;100.00
70954;BME280;58618;47.490;8.736;2022-09-12T02:22:43;96594.41;;;9.02;100.00
70954;BME280;58618;47.490;8.736;2022-09-12T02:25:32;96593.13;;;9.05;100.00
70954;BME280;58618;47.490;8.736;2022-09-12T02:28:26;96590.28;;;9.06;100.00
70954;BME280;58618;47.490;8.736;2022-09-12T02:31:20;96583.88;;;9.04;100.00
70954;BME280;58618;47.490;8.736;2022-09-12T02:34:17;96586.94;;;9.11;100.00
70954;BME280;58618;47.490;8.736;2022-09-12T02:37:13;96591.06;;;9.02;100.00
70954;BME280;58618;47.490;8.736;2022-09-12T02:40:05;96594.69;;;8.85;100.00
70954;BME280;58618;47.490;8.736;2022-09-12T02:42:54;96581.59;;;8.77;100.00
70954;BME280;58618;47.490;8.736;2022-09-12T02:45:41;96589.81;;;8.64;100.00
70954;BME280;58618;47.490;8.736;2022-09-12T02:48:31;96582.34;;;8.67;100.00
70954;BME280;58618;47.490;8.736;2022-09-12T02:51:20;96580.28;;;8.74;100.00
70954;BME280;58618;47.490;8.736;2022-09-12T02:54:09;96568.44;;;8.83;100.00
70954;BME280;58618;47.490;8.736;2022-09-12T02:56:57;96581.28;;;8.94;100.00
70954;BME280;58618;47.490;8.736;2022-09-12T02:59:45;96567.44;;;8.84;100.00
70954;BME280;58618;47.490;8.736;2022-09-12T03:02:43;96579.78;;;8.87;100.00
70954;BME280;58618;47.490;8.736;2022-09-12T03:05:37;96572.56;;;8.84;100.00
70954;BME280;58618;47.490;8.736;2022-09-12T03:08:52;96576.16;;;8.88;100.00
70954;BME280;58618;47.490;8.736;2022-09-12T03:12:02;96575.66;;;8.81;100.00
70954;BME280;58618;47.490;8.736;2022-09-12T03:15:06;96587.50;;;8.77;100.00
70954;BME280;58618;47.490;8.736;2022-09-12T03:18:05;96585.19;;;8.66;100.00
70954;BME280;58618;47.490;8.736;2022-09-12T03:21:01;96579.53;;;8.69;100.00
70954;BME280;58618;47.490;8.736;2022-09-12T03:23:59;96584.94;;;8.72;100.00
70954;BME280;58618;47.490;8.736;2022-09-12T03:26:54;96583.41;;;8.71;100.00
70954;BME280;58618;47.490;8.736;2022-09-12T03:29:44;96580.28;;;8.69;100.00
70954;BME280;58618;47.490;8.736;2022-09-12T03:32:40;96583.41;;;8.71;100.00
70954;BME280;58618;47.490;8.736;2022-09-12T03:35:27;96578.50;;;8.75;100.00
70954;BME280;58618;47.490;8.736;2022-09-12T03:38:16;96578.75;;;8.68;100.00
70954;BME280;58618;47.490;8.736;2022-09-12T03:41:03;96584.66;;;8.48;100.00
70954;BME280;58618;47.490;8.736;2022-09-12T03:43:52;96578.25;;;8.51;100.00
70954;BME280;58618;47.490;8.736;2022-09-12T03:46:42;96581.84;;;8.50;100.00
70954;BME280;58618;47.490;8.736;2022-09-12T03:49:29;96586.72;;;8.41;100.00
70954;BME280;58618;47.490;8.736;2022-09-12T03:52:16;96589.56;;;8.55;100.00
70954;BME280;58618;47.490;8.736;2022-09-12T03:55:04;96578.75;;;8.58;100.00
70954;BME280;58618;47.490;8.736;2022-09-12T03:57:52;96580.06;;;8.56;100.00
70954;BME280;58618;47.490;8.736;2022-09-12T04:00:40;96578.75;;;8.58;100.00
70954;BME280;58618;47.490;8.736;2022-09-12T04:03:29;96580.53;;;8.58;100.00
70954;BME280;58618;47.490;8.736;2022-09-12T04:06:18;96585.97;;;8.56;100.00
70954;BME280;58618;47.490;8.736;2022-09-12T04:09:06;96594.19;;;8.63;100.00
70954;BME280;58618;47.490;8.736;2022-09-12T04:11:53;96587.75;;;8.61;100.00
70954;BME280;58618;47.490;8.736;2022-09-12T04:14:40;96594.19;;;8.58;100.00
70954;BME280;58618;47.490;8.736;2022-09-12T04:17:29;96595.72;;;8.59;100.00
70954;BME280;58618;47.490;8.736;2022-09-12T04:20:16;96587.47;;;8.52;100.00
70954;BME280;58618;47.490;8.736;2022-09-12T04:23:04;96593.69;;;8.51;100.00
70954;BME280;58618;47.490;8.736;2022-09-12T04:25:55;96595.72;;;8.49;100.00
70954;BME280;58618;47.490;8.736;2022-09-12T04:28:43;96593.16;;;8.44;100.00
70954;BME280;58618;47.490;8.736;2022-09-12T04:31:31;96595.44;;;8.35;100.00
70954;BME280;58618;47.490;8.736;2022-09-12T04:34:19;96601.34;;;8.36;100.00
70954;BME280;58618;47.490;8.736;2022-09-12T04:37:06;96581.31;;;8.33;100.00
70954;BME280;58618;47.490;8.736;2022-09-12T04:39:54;96595.72;;;8.44;100.00
70954;BME280;58618;47.490;8.736;2022-09-12T04:42:42;96598.78;;;8.36;100.00
70954;BME280;58618;47.490;8.736;2022-09-12T04:45:30;96591.03;;;8.26;100.00
70954;BME280;58618;47.490;8.736;2022-09-12T04:48:17;96593.09;;;8.24;100.00
70954;BME280;58618;47.490;8.736;2022-09-12T04:51:10;96592.13;;;8.30;100.00
70954;BME280;58618;47.490;8.736;2022-09-12T04:54:00;96596.72;;;8.33;100.00
70954;BME280;58618;47.490;8.736;2022-09-12T04:56:49;96595.44;;;8.35;100.00
70954;BME280;58618;47.490;8.736;2022-09-12T04:59:37;96602.66;;;8.33;100.00
70954;BME280;58618;47.490;8.736;2022-09-12T05:02:24;96593.94;;;8.44;100.00
70954;BME280;58618;47.490;8.736;2022-09-12T05:05:12;96597.75;;;8.47;100.00
70954;BME280;58618;47.490;8.736;2022-09-12T05:08:01;96598.28;;;8.49;100.00
70954;BME280;58618;47.490;8.736;2022-09-12T05:10:48;96598.03;;;8.45;100.00
70954;BME280;58618;47.490;8.736;2022-09-12T05:13:36;96598.78;;;8.46;100.00
70954;BME280;58618;47.490;8.736;2022-09-12T05:16:25;96605.47;;;8.52;100.00
70954;BME280;58618;47.490;8.736;2022-09-12T05:19:12;96607.78;;;8.43;100.00
70954;BME280;58618;47.490;8.736;2022-09-12T05:21:59;96606.53;;;8.56;100.00
70954;BME280;58618;47.490;8.736;2022-09-12T05:24:48;96612.19;;;8.68;100.00
70954;BME280;58618;47.490;8.736;2022-09-12T05:27:36;96609.59;;;8.73;100.00
70954;BME280;58618;47.490;8.736;2022-09-12T05:30:23;96609.09;;;8.81;100.00
70954;BME280;58618;47.490;8.736;2022-09-12T05:33:10;96611.66;;;8.97;100.00
70954;BME280;58618;47.490;8.736;2022-09-12T05:35:58;96615.00;;;8.97;100.00
70954;BME280;58618;47.490;8.736;2022-09-12T05:38:45;96616.78;;;9.07;100.00
70954;BME280;58618;47.490;8.736;2022-09-12T05:41:34;96619.88;;;9.09;100.00
70954;BME280;58618;47.490;8.736;2022-09-12T05:44:22;96611.13;;;9.20;100.00
70954;BME280;58618;47.490;8.736;2022-09-12T05:47:10;96616.72;;;9.37;100.00
70954;BME280;58618;47.490;8.736;2022-09-12T05:49:57;96606.84;;;9.74;100.00
70954;BME280;58618;47.490;8.736;2022-09-12T05:52:45;96612.47;;;9.82;100.00
70954;BME280;58618;47.490;8.736;2022-09-12T05:55:32;96619.91;;;9.93;100.00
70954;BME280;58618;47.490;8.736;2022-09-12T05:58:21;96617.00;;;10.05;100.00
70954;BME280;58618;47.490;8.736;2022-09-12T06:01:10;96623.69;;;11.47;100.00
70954;BME280;58618;47.490;8.736;2022-09-12T06:03:59;96628.97;;;13.29;94.24
70954;BME280;58618;47.490;8.736;2022-09-12T06:06:47;96635.72;;;14.70;85.48
70954;BME280;58618;47.490;8.736;2022-09-12T06:09:34;96642.91;;;15.79;77.37
70954;BME280;58618;47.490;8.736;2022-09-12T06:12:21;96634.13;;;16.92;78.80
70954;BME280;58618;47.490;8.736;2022-09-12T06:15:10;96639.59;;;17.71;75.83
70954;BME280;58618;47.490;8.736;2022-09-12T06:17:57;96631.91;;;18.46;63.80
70954;BME280;58618;47.490;8.736;2022-09-12T06:20:44;96639.66;;;18.63;65.85
70954;BME280;58618;47.490;8.736;2022-09-12T06:23:32;96638.66;;;19.33;65.83
70954;BME280;58618;47.490;8.736;2022-09-12T06:26:20;96634.00;;;20.24;60.46
70954;BME280;58618;47.490;8.736;2022-09-12T06:29:09;96633.41;;;20.83;56.46
70954;BME280;58618;47.490;8.736;2022-09-12T06:31:59;96636.53;;;21.47;58.17
70954;BME280;58618;47.490;8.736;2022-09-12T06:34:47;96627.56;;;21.96;52.90
70954;BME280;58618;47.490;8.736;2022-09-12T06:37:34;96624.94;;;21.17;53.46
70954;BME280;58618;47.490;8.736;2022-09-12T06:40:22;96634.34;;;21.49;55.26
70954;BME280;58618;47.490;8.736;2022-09-12T06:43:10;96632.31;;;21.43;54.04
70954;BME280;58618;47.490;8.736;2022-09-12T06:45:59;96631.41;;;22.37;52.86
70954;BME280;58618;47.490;8.736;2022-09-12T06:48:47;96632.94;;;22.38;49.30
70954;BME280;58618;47.490;8.736;2022-09-12T06:51:35;96637.09;;;22.39;51.40
70954;BME280;58618;47.490;8.736;2022-09-12T06:54:23;96625.53;;;23.01;49.23
70954;BME280;58618;47.490;8.736;2022-09-12T06:57:11;96634.22;;;23.24;48.96
70954;BME280;58618;47.490;8.736;2022-09-12T06:59:59;96639.91;;;23.49;49.24
70954;BME280;58618;47.490;8.736;2022-09-12T07:02:46;96629.56;;;23.37;49.37
70954;BME280;58618;47.490;8.736;2022-09-12T07:05:34;96628.66;;;23.06;49.52
70954;BME280;58618;47.490;8.736;2022-09-12T07:08:22;96625.91;;;23.22;48.96
70954;BME280;58618;47.490;8.736;2022-09-12T07:11:12;96626.09;;;23.33;49.07
70954;BME280;58618;47.490;8.736;2022-09-12T07:14:00;96622.59;;;23.48;47.99
70954;BME280;58618;47.490;8.736;2022-09-12T07:16:48;96625.38;;;23.81;48.19
70954;BME280;58618;47.490;8.736;2022-09-12T07:19:35;96628.00;;;24.08;47.50
70954;BME280;58618;47.490;8.736;2022-09-12T07:22:24;96617.78;;;23.76;48.84
70954;BME280;58618;47.490;8.736;2022-09-12T07:25:11;96621.00;;;23.66;48.26
70954;BME280;58618;47.490;8.736;2022-09-12T07:27:58;96620.59;;;23.64;48.76
70954;BME280;58618;47.490;8.736;2022-09-12T07:30:46;96625.34;;;23.55;49.68
70954;BME280;58618;47.490;8.736;2022-09-12T07:33:34;96615.91;;;23.08;50.57
70954;BME280;58618;47.490;8.736;2022-09-12T07:36:23;96616.91;;;22.43;50.96
70954;BME280;58618;47.490;8.736;2022-09-12T07:39:12;96617.31;;;23.48;50.03
70954;BME280;58618;47.490;8.736;2022-09-12T07:41:59;96618.53;;;21.46;54.43
70954;BME280;58618;47.490;8.736;2022-09-12T07:44:46;96618.59;;;23.35;50.87
70954;BME280;58618;47.490;8.736;2022-09-12T07:47:34;96618.03;;;23.94;48.07
70954;BME280;58618;47.490;8.736;2022-09-12T07:50:21;96615.09;;;23.99;48.48
70954;BME280;58618;47.490;8.736;2022-09-12T07:53:08;96607.47;;;22.22;53.09
70954;BME280;58618;47.490;8.736;2022-09-12T07:55:58;96602.66;;;22.44;53.44
70954;BME280;58618;47.490;8.736;2022-09-12T07:58:45;96607.28;;;20.58;57.06
70954;BME280;58618;47.490;8.736;2022-09-12T08:01:33;96607.22;;;20.31;60.25
70954;BME280;58618;47.490;8.736;2022-09-12T08:04:20;96608.75;;;21.15;57.77
70954;BME280;58618;47.490;8.736;2022-09-12T08:07:08;96612.78;;;20.41;59.59
70954;BME280;58618;47.490;8.736;2022-09-12T08:09:55;96603.41;;;21.74;55.94
70954;BME280;58618;47.490;8.736;2022-09-12T08:12:43;96612.53;;;20.06;60.86
70954;BME280;58618;47.490;8.736;2022-09-12T08:15:31;96615.28;;;20.78;58.88
70954;BME280;58618;47.490;8.736;2022-09-12T08:18:18;96599.66;;;20.53;61.10
70954;BME280;58618;47.490;8.736;2022-09-12T08:21:07;96608.44;;;20.45;61.02
70954;BME280;58618;47.490;8.736;2022-09-12T08:23:57;96611.66;;;20.54;62.15
70954;BME280;58618;47.490;8.736;2022-09-12T08:26:45;96614.44;;;20.21;62.66
70954;BME280;58618;47.490;8.736;2022-09-12T08:29:34;96617.63;;;19.42;65.90
70954;BME280;58618;47.490;8.736;2022-09-12T08:32:21;96611.94;;;19.16;67.55
70954;BME280;58618;47.490;8.736;2022-09-12T08:35:08;96618.03;;;19.20;67.27
70954;BME280;58618;47.490;8.736;2022-09-12T08:37:56;96617.78;;;19.82;65.20
70954;BME280;58618;47.490;8.736;2022-09-12T08:40:49;96614.34;;;20.18;62.75
70954;BME280;58618;47.490;8.736;2022-09-12T08:47:05;96622.59;;;19.92;64.58
70954;BME280;58618;47.490;8.736;2022-09-12T08:50:02;96618.41;;;18.44;69.69
70954;BME280;58618;47.490;8.736;2022-09-12T08:52:55;96610.78;;;18.39;70.90
70954;BME280;58618;47.490;8.736;2022-09-12T08:55:45;96611.72;;;19.09;68.18
70954;BME280;58618;47.490;8.736;2022-09-12T08:58:40;96609.84;;;19.54;67.75
70954;BME280;58618;47.490;8.736;2022-09-12T09:01:30;96603.47;;;18.86;67.79
70954;BME280;58618;47.490;8.736;2022-09-12T09:04:36;96609.19;;;19.45;66.89
70954;BME280;58618;47.490;8.736;2022-09-12T09:07:47;96618.09;;;19.68;65.54
70954;BME280;58618;47.490;8.736;2022-09-12T09:10:47;96611.66;;;19.78;64.39
70954;BME280;58618;47.490;8.736;2022-09-12T09:13:45;96606.53;;;19.57;64.79
70954;BME280;58618;47.490;8.736;2022-09-12T09:16:51;96610.47;;;18.61;69.70
70954;BME280;58618;47.490;8.736;2022-09-12T09:19:44;96614.56;;;18.83;67.89
70954;BME280;58618;47.490;8.736;2022-09-12T09:22:40;96610.44;;;18.82;69.28
70954;BME280;58618;47.490;8.736;2022-09-12T09:25:37;96598.50;;;18.19;71.03
70954;BME280;58618;47.490;8.736;2022-09-12T09:28:32;96602.97;;;18.51;71.03
70954;BME280;58618;47.490;8.736;2022-09-12T09:31:24;96599.31;;;18.31;71.66
70954;BME280;58618;47.490;8.736;2022-09-12T09:34:14;96596.50;;;18.15;73.94
70954;BME280;58618;47.490;8.736;2022-09-12T09:37:14;96602.75;;;18.65;71.25
70954;BME280;58618;47.490;8.736;2022-09-12T09:40:09;96596.91;;;18.80;72.33
70954;BME280;58618;47.490;8.736;2022-09-12T09:43:01;96600.91;;;18.65;70.19
70954;BME280;58618;47.490;8.736;2022-09-12T09:45:50;96596.81;;;18.88;70.83
70954;BME280;58618;47.490;8.736;2022-09-12T09:48:41;96589.13;;;18.59;72.60
70954;BME280;58618;47.490;8.736;2022-09-12T09:51:33;96587.69;;;18.41;72.54
70954;BME280;58618;47.490;8.736;2022-09-12T09:54:25;96591.34;;;18.69;71.50
70954;BME280;58618;47.490;8.736;2022-09-12T09:57:43;96582.03;;;18.92;71.18
70954;BME280;58618;47.490;8.736;2022-09-12T10:00:33;96581.16;;;18.88;70.47
70954;BME280;58618;47.490;8.736;2022-09-12T10:03:30;96578.41;;;18.85;70.75
70954;BME280;58618;47.490;8.736;2022-09-12T10:06:27;96577.28;;;19.07;71.09
70954;BME280;58618;47.490;8.736;2022-09-12T10:09:24;96572.06;;;19.31;69.87
70954;BME280;58618;47.490;8.736;2022-09-12T10:12:25;96571.88;;;19.72;69.78
70954;BME280;58618;47.490;8.736;2022-09-12T10:15:18;96575.47;;;19.80;68.76
70954;BME280;58618;47.490;8.736;2022-09-12T10:18:06;96572.72;;;19.89;67.14
70954;BME280;58618;47.490;8.736;2022-09-12T10:20:53;96571.38;;;20.07;67.19
70954;BME280;58618;47.490;8.736;2022-09-12T10:23:42;96560.22;;;20.10;67.26
70954;BME280;58618;47.490;8.736;2022-09-12T10:26:34;96570.97;;;19.93;67.08
70954;BME280;58618;47.490;8.736;2022-09-12T10:29:26;96563.13;;;19.80;68.38
70954;BME280;58618;47.490;8.736;2022-09-12T10:32:21;96559.16;;;20.11;67.29
70954;BME280;58618;47.490;8.736;2022-09-12T10:35:17;96561.91;;;19.90;68.43
70954;BME280;58618;47.490;8.736;2022-09-12T10:38:09;96556.75;;;20.06;68.07
70954;BME280;58618;47.490;8.736;2022-09-12T10:41:02;96562.25;;;19.89;68.29
70954;BME280;58618;47.490;8.736;2022-09-12T10:44:05;96563.28;;;20.12;66.82
70954;BME280;58618;47.490;8.736;2022-09-12T10:46:53;96552.19;;;20.03;68.07
70954;BME280;58618;47.490;8.736;2022-09-12T10:49:41;96544.00;;;20.44;69.29
70954;BME280;58618;47.490;8.736;2022-09-12T10:52:28;96549.13;;;20.69;66.46
70954;BME280;58618;47.490;8.736;2022-09-12T10:55:15;96555.03;;;20.65;64.92
70954;BME280;58618;47.490;8.736;2022-09-12T10:58:29;96548.19;;;20.61;64.01
70954;BME280;58618;47.490;8.736;2022-09-12T11:01:32;96549.84;;;20.53;64.82
70954;BME280;58618;47.490;8.736;2022-09-12T11:04:28;96543.56;;;20.86;68.85
70954;BME280;58618;47.490;8.736;2022-09-12T11:07:32;96553.03;;;20.47;68.20
70954;BME280;58618;47.490;8.736;2022-09-12T11:10:30;96546.56;;;20.56;66.05
70954;BME280;58618;47.490;8.736;2022-09-12T11:13:29;96544.94;;;20.52;65.98
70954;BME280;58618;47.490;8.736;2022-09-12T11:16:26;96538.75;;;20.44;66.15
70954;BME280;58618;47.490;8.736;2022-09-12T11:22:51;96536.88;;;20.73;64.08
70954;BME280;58618;47.490;8.736;2022-09-12T11:25:47;96526.06;;;20.90;67.94
70954;BME280;58618;47.490;8.736;2022-09-12T11:28:44;96527.25;;;21.08;65.45
70954;BME280;58618;47.490;8.736;2022-09-12T11:31:53;96528.59;;;21.02;65.34
70954;BME280;58618;47.490;8.736;2022-09-12T11:34:52;96516.31;;;20.75;65.74
70954;BME280;58618;47.490;8.736;2022-09-12T11:37:58;96514.22;;;20.96;65.19
70954;BME280;58618;47.490;8.736;2022-09-12T11:40:52;96517.03;;;21.03;64.21
70954;BME280;58618;47.490;8.736;2022-09-12T11:43:43;96504.31;;;21.05;65.54
70954;BME280;58618;47.490;8.736;2022-09-12T11:46:35;96509.72;;;20.81;65.42
70954;BME280;58618;47.490;8.736;2022-09-12T11:49:30;96513.44;;;21.11;65.13
70954;BME280;58618;47.490;8.736;2022-09-12T11:52:22;96517.84;;;21.07;63.79
70954;BME280;58618;47.490;8.736;2022-09-12T11:55:15;96513.44;;;21.11;64.70
70954;BME280;58618;47.490;8.736;2022-09-12T11:58:03;96518.47;;;21.16;64.42
70954;BME280;58618;47.490;8.736;2022-09-12T12:00:54;96510.69;;;21.20;64.70
70954;BME280;58618;47.490;8.736;2022-09-12T12:03:44;96503.47;;;21.32;62.64
70954;BME280;58618;47.490;8.736;2022-09-12T12:06:44;96500.06;;;21.47;63.40
70954;BME280;58618;47.490;8.736;2022-09-12T12:09:33;96494.03;;;21.47;62.76
70954;BME280;58618;47.490;8.736;2022-09-12T12:12:23;96497.56;;;21.35;61.15
70954;BME280;58618;47.490;8.736;2022-09-12T12:15:14;96497.31;;;21.60;61.15
70954;BME280;58618;47.490;8.736;2022-09-12T12:18:05;96496.78;;;21.70;63.26
70954;BME280;58618;47.490;8.736;2022-09-12T12:20:54;96485.72;;;21.61;61.76
70954;BME280;58618;47.490;8.736;2022-09-12T12:24:01;96487.25;;;21.62;61.21
70954;BME280;58618;47.490;8.736;2022-09-12T12:26:58;96484.69;;;21.65;65.69
70954;BME280;58618;47.490;8.736;2022-09-12T12:29:45;96481.53;;;21.75;64.20
70954;BME280;58618;47.490;8.736;2022-09-12T12:32:33;96479.59;;;21.72;64.88
70954;BME280;58618;47.490;8.736;2022-09-12T12:35:37;96478.75;;;21.68;61.82
70954;BME280;58618;47.490;8.736;2022-09-12T12:38:26;96473.59;;;21.72;61.98
70954;BME280;58618;47.490;8.736;2022-09-12T12:41:43;96466.13;;;21.93;60.91
70954;BME280;58618;47.490;8.736;2022-09-12T12:44:47;96466.41;;;21.88;59.97
70954;BME280;58618;47.490;8.736;2022-09-12T12:47:40;96457.28;;;22.01;62.70
70954;BME280;58618;47.490;8.736;2022-09-12T12:50:30;96461.38;;;21.99;61.38
70954;BME280;58618;47.490;8.736;2022-09-12T12:53:20;96463.09;;;22.10;59.66
70954;BME280;58618;47.490;8.736;2022-09-12T12:56:25;96450.38;;;22.12;58.81
70954;BME280;58618;47.490;8.736;2022-09-12T12:59:20;96449.69;;;22.15;63.52
70954;BME280;58618;47.490;8.736;2022-09-12T13:02:18;96441.53;;;22.20;59.35
70954;BME280;58618;47.490;8.736;2022-09-12T13:05:16;96449.03;;;22.22;59.12
70954;BME280;58618;47.490;8.736;2022-09-12T13:08:07;96440.97;;;22.30;57.49
70954;BME280;58618;47.490;8.736;2022-09-12T13:10:59;96439.09;;;22.31;57.79
70954;BME280;58618;47.490;8.736;2022-09-12T13:13:49;96426.69;;;22.31;59.31
70954;BME280;58618;47.490;8.736;2022-09-12T13:16:52;96421.13;;;22.37;57.91
70954;BME280;58618;47.490;8.736;2022-09-12T13:19:40;96420.88;;;22.42;58.71
70954;BME280;58618;47.490;8.736;2022-09-12T13:22:37;96420.16;;;22.45;58.65
70954;BME280;58618;47.490;8.736;2022-09-12T13:25:29;96418.19;;;22.61;62.53
70954;BME280;58618;47.490;8.736;2022-09-12T13:28:17;96417.75;;;22.59;61.75
70954;BME280;58618;47.490;8.736;2022-09-12T13:31:10;96411.63;;;22.74;62.65
70954;BME280;58618;47.490;8.736;2022-09-12T13:34:03;96411.03;;;22.84;62.29
70954;BME280;58618;47.490;8.736;2022-09-12T13:37:16;96416.59;;;23.05;61.85
70954;BME280;58618;47.490;8.736;2022-09-12T13:40:21;96403.69;;;22.93;54.19
70954;BME280;58618;47.490;8.736;2022-09-12T13:43:12;96405.88;;;22.91;54.20
70954;BME280;58618;47.490;8.736;2022-09-12T13:46:01;96402.03;;;22.85;54.58
70954;BME280;58618;47.490;8.736;2022-09-12T13:48:48;96399.81;;;22.87;58.04
70954;BME280;58618;47.490;8.736;2022-09-12T13:51:37;96393.34;;;23.07;55.98
70954;BME280;58618;47.490;8.736;2022-09-12T13:54:24;96395.47;;;22.98;54.01
70954;BME280;58618;47.490;8.736;2022-09-12T13:57:26;96385.66;;;22.95;53.99
70954;BME280;58618;47.490;8.736;2022-09-12T14:00:16;96384.19;;;22.98;56.96
70954;BME280;58618;47.490;8.736;2022-09-12T14:03:25;96377.38;;;22.93;55.71
70954;BME280;58618;47.490;8.736;2022-09-12T14:06:38;96383.38;;;22.94;59.79
70954;BME280;58618;47.490;8.736;2022-09-12T14:09:33;96376.94;;;22.91;56.70
70954;BME280;58618;47.490;8.736;2022-09-12T14:12:24;96374.94;;;22.81;47.86
70954;BME280;58618;47.490;8.736;2022-09-12T14:15:15;96377.16;;;22.79;47.87
70954;BME280;58618;47.490;8.736;2022-09-12T14:18:05;96376.44;;;22.82;55.14
70954;BME280;58618;47.490;8.736;2022-09-12T14:20:54;96378.78;;;22.87;58.37
70954;BME280;58618;47.490;8.736;2022-09-12T14:23:45;96374.94;;;22.81;58.58
70954;BME280;58618;47.490;8.736;2022-09-12T14:26:34;96384.41;;;22.63;56.28
70954;BME280;58618;47.490;8.736;2022-09-12T14:29:23;96376.97;;;22.68;56.73
70954;BME280;58618;47.490;8.736;2022-09-12T14:32:19;96377.16;;;22.79;59.99
70954;BME280;58618;47.490;8.736;2022-09-12T14:35:18;96375.44;;;22.90;57.43
70954;BME280;58618;47.490;8.736;2022-09-12T14:38:08;96369.94;;;22.99;56.23
70954;BME280;58618;47.490;8.736;2022-09-12T14:41:06;96367.22;;;22.95;55.83
70954;BME280;58618;47.490;8.736;2022-09-12T14:43:57;96371.31;;;22.89;61.08
70954;BME280;58618;47.490;8.736;2022-09-12T14:46:46;96369.66;;;22.81;56.65
70954;BME280;58618;47.490;8.736;2022-09-12T14:49:35;96368.16;;;22.80;58.95
70954;BME280;58618;47.490;8.736;2022-09-12T14:52:25;96365.22;;;22.85;56.01
70954;BME280;58618;47.490;8.736;2022-09-12T14:55:26;96367.53;;;22.90;63.46
70954;BME280;58618;47.490;8.736;2022-09-12T14:58:23;96359.25;;;22.88;56.77
70954;BME280;58618;47.490;8.736;2022-09-12T15:01:23;96365.44;;;22.99;56.88
70954;BME280;58618;47.490;8.736;2022-09-12T15:04:37;96360.78;;;22.89;53.35
70954;BME280;58618;47.490;8.736;2022-09-12T15:07:31;96356.88;;;22.80;53.07
70954;BME280;58618;47.490;8.736;2022-09-12T15:10:21;96367.06;;;22.85;61.29
70954;BME280;58618;47.490;8.736;2022-09-12T15:13:21;96361.91;;;22.65;62.71
70954;BME280;58618;47.490;8.736;2022-09-12T15:16:10;96358.06;;;22.37;64.36
70954;BME280;58618;47.490;8.736;2022-09-12T15:18:57;96355.94;;;22.00;67.36
70954;BME280;58618;47.490;8.736;2022-09-12T15:21:45;96350.94;;;21.72;68.04